Time;durP1;ratioP1;P1;durP2;ratioP2;P2;SDS_P1;SDS_P2;PMS_P1;PMS_P2;Temp;Humidity;BMP_temperature;BMP_pressure;BME280_temperature;BME280_humidity;BME280_pressure;Samples;Min_cycle;Max_cycle;Signal;HPM_P1;HPM_P2
2021/08/27 00:00:12;;;;;;;318.52;299.42;;;14.80;99.90;;;;;;5072031;28;20206;-76
2021/08/27 00:02:41;;;;;;;332.75;311.15;;;14.80;99.90;;;;;;5067724;28;20261;-76
2021/08/27 00:05:09;;;;;;;322.55;302.48;;;14.90;99.90;;;;;;5068379;28;20202;-76
2021/08/27 00:07:36;;;;;;;306.42;287.80;;;14.90;99.90;;;;;;5079149;28;20229;-76
2021/08/27 00:10:05;;;;;;;299.80;281.95;;;14.90;99.90;;;;;;5067380;28;20203;-76
2021/08/27 00:12:32;;;;;;;301.75;283.80;;;14.90;99.90;;;;;;5068104;28;20199;-76
2021/08/27 00:14:59;;;;;;;340.48;319.50;;;15.00;99.90;;;;;;5074663;28;20194;-76
2021/08/27 00:17:30;;;;;;;297.02;278.45;;;15.00;99.90;;;;;;5074295;28;20215;-76
2021/08/27 00:19:59;;;;;;;344.52;323.15;;;15.00;99.90;;;;;;5076102;28;20267;-76
2021/08/27 00:22:26;;;;;;;336.15;315.40;;;15.00;99.90;;;;;;5070710;28;20196;-76
2021/08/27 00:24:53;;;;;;;356.92;334.83;;;15.00;99.90;;;;;;5068068;28;20246;-76
2021/08/27 00:27:21;;;;;;;354.25;332.30;;;15.00;99.90;;;;;;5067616;28;20227;-76
2021/08/27 00:29:48;;;;;;;347.63;326.00;;;15.00;99.90;;;;;;5067534;28;20532;-76
2021/08/27 00:32:15;;;;;;;322.17;302.90;;;15.00;99.90;;;;;;5067398;28;20198;-76
2021/08/27 00:34:42;;;;;;;302.98;285.02;;;15.00;99.90;;;;;;5068236;28;20204;-76
2021/08/27 00:37:11;;;;;;;336.83;315.80;;;15.00;99.90;;;;;;5066890;28;20755;-76
2021/08/27 00:39:38;;;;;;;315.17;296.10;;;15.00;99.90;;;;;;5071059;28;20199;-77
2021/08/27 00:42:05;;;;;;;307.08;287.60;;;15.00;99.90;;;;;;5066770;28;20230;-76
2021/08/27 00:44:32;;;;;;;337.15;316.92;;;14.90;99.90;;;;;;5067435;28;20251;-76
2021/08/27 00:46:59;;;;;;;309.88;291.33;;;14.90;99.90;;;;;;5066893;28;20612;-76
2021/08/27 00:49:26;;;;;;;326.42;306.20;;;14.90;99.90;;;;;;5077434;28;20232;-76
2021/08/27 00:51:53;;;;;;;349.13;327.00;;;14.90;99.90;;;;;;5066376;28;20264;-76
2021/08/27 00:54:22;;;;;;;330.30;309.55;;;14.80;99.90;;;;;;5066605;28;20203;-76
2021/08/27 00:56:50;;;;;;;348.10;325.60;;;14.80;99.90;;;;;;5067349;28;20202;-76
2021/08/27 00:59:18;;;;;;;362.40;338.67;;;14.80;99.90;;;;;;5069674;28;20203;-76
2021/08/27 01:01:45;;;;;;;338.33;316.67;;;14.80;99.90;;;;;;5070503;28;20230;-76
2021/08/27 01:04:13;;;;;;;303.08;283.83;;;14.70;99.90;;;;;;5065982;28;20238;-76
2021/08/27 01:06:43;;;;;;;346.58;324.08;;;14.70;99.90;;;;;;5066376;28;20252;-76
2021/08/27 01:09:20;;;;;;;339.60;317.63;;;14.70;99.90;;;;;;5066736;28;20230;-76
2021/08/27 01:11:54;;;;;;;368.05;344.30;;;14.60;99.90;;;;;;5066755;28;20203;-76
2021/08/27 01:14:27;;;;;;;334.75;313.23;;;14.60;99.90;;;;;;5066971;28;20202;-76
2021/08/27 01:17:01;;;;;;;361.13;338.73;;;14.70;99.90;;;;;;5071533;28;20252;-76
2021/08/27 01:20:10;;;;;;;321.52;301.92;;;14.60;99.90;;;;;;5066414;28;20229;-76
2021/08/27 01:23:02;;;;;;;345.33;323.35;;;14.60;99.90;;;;;;4988679;28;20835;-76
2021/08/27 01:25:32;;;;;;;340.90;319.73;;;14.60;99.90;;;;;;4989542;28;20218;-76
2021/08/27 01:28:04;;;;;;;368.33;345.08;;;14.50;99.90;;;;;;4985832;28;20243;-76
2021/08/27 01:30:39;;;;;;;378.50;354.45;;;14.50;99.90;;;;;;4985204;28;20269;-76
2021/08/27 01:33:11;;;;;;;330.15;309.38;;;14.50;99.90;;;;;;4985193;28;20232;-76
2021/08/27 01:35:45;;;;;;;319.98;300.20;;;14.50;99.90;;;;;;4984458;28;20292;-76
2021/08/27 01:38:14;;;;;;;365.83;339.48;;;14.40;99.90;;;;;;4985180;28;20287;-76
2021/08/27 01:40:43;;;;;;;401.13;374.67;;;14.50;99.90;;;;;;4984840;28;20210;-76
2021/08/27 01:43:12;;;;;;;369.98;346.00;;;14.40;99.90;;;;;;4991249;28;20240;-76
2021/08/27 01:45:41;;;;;;;342.80;320.90;;;14.50;99.90;;;;;;4985634;28;20240;-76
2021/08/27 01:48:09;;;;;;;348.38;326.27;;;14.50;99.90;;;;;;4989364;28;20231;-76
2021/08/27 01:50:39;;;;;;;390.95;365.45;;;14.50;99.90;;;;;;4984702;28;20198;-76
2021/08/27 01:53:07;;;;;;;330.15;309.33;;;14.50;99.90;;;;;;4984856;28;20203;-76
2021/08/27 01:55:35;;;;;;;360.90;338.20;;;14.50;99.90;;;;;;4988570;28;20199;-76
2021/08/27 01:58:04;;;;;;;356.73;333.55;;;14.50;99.90;;;;;;5012900;28;20203;-76
2021/08/27 02:00:33;;;;;;;364.23;341.15;;;14.50;99.90;;;;;;5066033;28;20199;-76
2021/08/27 02:03:01;;;;;;;381.95;357.30;;;14.40;99.90;;;;;;5065973;28;20221;-76
2021/08/27 02:05:29;;;;;;;382.67;358.40;;;14.40;99.90;;;;;;5065584;28;20222;-76
2021/08/27 02:08:00;;;;;;;331.15;310.08;;;14.50;99.90;;;;;;5065993;28;20250;-76
2021/08/27 02:10:27;;;;;;;324.85;304.88;;;14.50;99.90;;;;;;5073559;28;20198;-76
2021/08/27 02:12:54;;;;;;;357.25;335.08;;;14.50;99.90;;;;;;5072573;28;20204;-76
2021/08/27 02:15:23;;;;;;;320.63;300.60;;;14.50;99.90;;;;;;5071984;28;20199;-76
2021/08/27 02:17:51;;;;;;;318.00;298.75;;;14.50;99.90;;;;;;5066329;28;20211;-76
2021/08/27 02:20:18;;;;;;;319.70;299.67;;;14.50;99.90;;;;;;5066352;28;20253;-76
2021/08/27 02:22:50;;;;;;;353.13;331.23;;;14.50;99.90;;;;;;5065214;28;20618;-76
2021/08/27 02:25:22;;;;;;;336.98;315.80;;;14.60;99.90;;;;;;5068160;28;20212;-76
2021/08/27 02:27:50;;;;;;;337.25;315.88;;;14.50;99.90;;;;;;5077338;28;20232;-76
2021/08/27 02:30:18;;;;;;;393.45;367.40;;;14.60;99.90;;;;;;5067120;28;20229;-76
2021/08/27 02:32:46;;;;;;;378.13;354.05;;;14.60;99.90;;;;;;5066003;28;20257;-75
2021/08/27 02:35:14;;;;;;;355.00;332.50;;;14.70;99.90;;;;;;5065361;28;20701;-76
2021/08/27 02:37:43;;;;;;;332.67;311.73;;;14.70;99.90;;;;;;5070984;28;20200;-75
2021/08/27 02:40:12;;;;;;;340.80;319.45;;;14.80;99.90;;;;;;5066169;28;20204;-75
2021/08/27 02:42:42;;;;;;;334.42;314.17;;;14.80;99.90;;;;;;5068416;28;20275;-75
2021/08/27 02:45:10;;;;;;;332.58;312.17;;;14.80;99.90;;;;;;5065885;28;20225;-75
2021/08/27 02:47:37;;;;;;;350.73;328.92;;;14.80;99.90;;;;;;5073432;28;20191;-75
2021/08/27 02:50:05;;;;;;;340.58;319.17;;;14.70;99.90;;;;;;5082299;28;20194;-76
2021/08/27 02:52:38;;;;;;;305.75;286.27;;;14.80;99.90;;;;;;5081702;28;20178;-75
2021/08/27 02:55:11;;;;;;;297.60;278.88;;;14.80;99.90;;;;;;5069727;28;20204;-76
2021/08/27 02:57:48;;;;;;;345.52;323.98;;;14.70;99.90;;;;;;5069365;28;20227;-76
2021/08/27 03:00:16;;;;;;;325.30;305.27;;;14.70;99.90;;;;;;5069709;28;20220;-75
2021/08/27 03:02:45;;;;;;;315.52;296.20;;;14.80;99.90;;;;;;5069000;28;20205;-75
2021/08/27 03:05:15;;;;;;;296.65;277.63;;;14.70;99.90;;;;;;5073085;28;20211;-76
2021/08/27 03:07:46;;;;;;;311.92;293.27;;;14.80;99.90;;;;;;5068477;28;20204;-76
2021/08/27 03:10:17;;;;;;;322.90;303.25;;;14.80;99.90;;;;;;5068743;28;20205;-76
2021/08/27 03:12:52;;;;;;;348.92;327.25;;;14.80;99.90;;;;;;5069671;28;20210;-76
2021/08/27 03:15:27;;;;;;;343.15;321.45;;;14.80;99.90;;;;;;5075629;28;20199;-76
2021/08/27 03:18:01;;;;;;;335.85;314.80;;;14.80;99.90;;;;;;5075820;28;20369;-76
2021/08/27 03:20:33;;;;;;;309.45;290.15;;;14.70;99.90;;;;;;5068995;28;20208;-76
2021/08/27 03:23:05;;;;;;;344.55;322.58;;;14.70;99.90;;;;;;5069124;28;20251;-76
2021/08/27 03:25:37;;;;;;;326.85;306.60;;;14.80;99.90;;;;;;5068351;28;20203;-76
2021/08/27 03:28:09;;;;;;;346.50;324.35;;;14.80;99.90;;;;;;5071351;28;20203;-76
2021/08/27 03:30:37;;;;;;;324.63;304.77;;;14.80;99.90;;;;;;5075247;28;20490;-76
2021/08/27 03:33:09;;;;;;;322.52;303.05;;;14.80;99.90;;;;;;5072334;28;20204;-76
2021/08/27 03:35:37;;;;;;;316.95;297.58;;;14.80;99.90;;;;;;5070698;28;20207;-76
2021/08/27 03:38:05;;;;;;;327.30;307.08;;;14.90;99.90;;;;;;5076988;28;20205;-76
2021/08/27 03:40:34;;;;;;;352.17;329.88;;;14.80;99.90;;;;;;5072787;28;20204;-76
2021/08/27 03:43:02;;;;;;;353.73;331.75;;;14.80;99.90;;;;;;5076519;28;20212;-76
2021/08/27 03:45:32;;;;;;;341.73;320.15;;;14.90;99.90;;;;;;5068548;28;20221;-76
2021/08/27 03:48:00;;;;;;;332.73;311.90;;;14.90;99.90;;;;;;5068151;28;20207;-76
2021/08/27 03:50:27;;;;;;;349.88;328.13;;;15.00;99.90;;;;;;5068853;28;20205;-76
2021/08/27 03:52:55;;;;;;;334.08;312.83;;;15.00;99.90;;;;;;5068438;28;20194;-76
2021/08/27 03:55:23;;;;;;;317.42;297.55;;;15.10;99.90;;;;;;5074200;28;20222;-76
2021/08/27 03:57:51;;;;;;;347.25;325.45;;;15.10;99.90;;;;;;5067952;28;20264;-76
2021/08/27 04:00:21;;;;;;;324.40;304.55;;;15.10;99.90;;;;;;5076121;28;20229;-76
2021/08/27 04:02:52;;;;;;;312.80;293.55;;;15.20;99.90;;;;;;5070555;28;20269;-76
2021/08/27 04:05:20;;;;;;;331.38;310.52;;;15.20;99.90;;;;;;5068381;28;20200;-76
2021/08/27 04:07:49;;;;;;;361.38;338.58;;;15.20;99.90;;;;;;5072738;28;20230;-76
2021/08/27 04:10:21;;;;;;;330.95;310.88;;;15.20;99.90;;;;;;5067594;28;20265;-76
2021/08/27 04:12:49;;;;;;;321.88;300.77;;;15.20;99.90;;;;;;5071277;28;20207;-76
2021/08/27 04:15:18;;;;;;;349.00;326.50;;;15.30;99.90;;;;;;5071963;28;20200;-76
2021/08/27 04:17:45;;;;;;;352.67;330.08;;;15.30;99.90;;;;;;5067572;28;20203;-76
2021/08/27 04:20:16;;;;;;;343.58;321.75;;;15.30;99.90;;;;;;5067781;28;20273;-76
2021/08/27 04:22:43;;;;;;;340.33;318.95;;;15.30;99.90;;;;;;5067454;28;20200;-76
2021/08/27 04:25:11;;;;;;;351.85;329.45;;;15.30;99.90;;;;;;5067808;28;20207;-76
2021/08/27 04:27:38;;;;;;;353.77;331.13;;;15.40;99.90;;;;;;5066985;28;20211;-76
2021/08/27 04:30:06;;;;;;;365.23;341.70;;;15.30;99.90;;;;;;5067050;28;20261;-76
2021/08/27 04:32:34;;;;;;;338.42;317.02;;;15.30;99.90;;;;;;5073941;28;20196;-76
2021/08/27 04:35:02;;;;;;;338.50;318.05;;;15.40;99.90;;;;;;5067716;28;20207;-76
2021/08/27 04:37:32;;;;;;;337.27;316.83;;;15.50;99.90;;;;;;5067682;28;20205;-76
2021/08/27 04:39:59;;;;;;;383.88;358.60;;;15.40;99.90;;;;;;5067887;28;20230;-76
2021/08/27 04:42:26;;;;;;;437.70;408.80;;;15.40;99.90;;;;;;5072610;28;20563;-76
2021/08/27 04:44:53;;;;;;;309.13;291.10;;;15.40;99.90;;;;;;5067189;28;20456;-76
2021/08/27 04:47:20;;;;;;;372.70;348.98;;;15.40;99.90;;;;;;5067227;28;20199;-76
2021/08/27 04:49:47;;;;;;;398.73;373.10;;;15.40;99.90;;;;;;5074016;28;20296;-75
2021/08/27 04:52:14;;;;;;;350.38;328.58;;;15.50;99.90;;;;;;5066919;28;20254;-76
2021/08/27 04:54:42;;;;;;;365.77;342.85;;;15.50;99.90;;;;;;5066861;28;20203;-76
2021/08/27 04:57:09;;;;;;;358.63;335.45;;;15.50;99.90;;;;;;5067181;28;20260;-76
2021/08/27 04:59:36;;;;;;;376.10;351.25;;;15.50;99.90;;;;;;5066997;28;20198;-76
2021/08/27 05:02:03;;;;;;;362.75;340.08;;;15.50;99.90;;;;;;5067808;28;20255;-76
2021/08/27 05:04:30;;;;;;;388.08;363.13;;;15.50;99.90;;;;;;5066408;28;20233;-76
2021/08/27 05:06:57;;;;;;;353.45;331.25;;;15.60;99.90;;;;;;5066925;28;20211;-76
2021/08/27 05:09:24;;;;;;;360.60;338.23;;;15.70;99.90;;;;;;5065727;28;20219;-75
2021/08/27 05:11:53;;;;;;;402.73;377.35;;;15.70;99.90;;;;;;5066557;28;20237;-75
2021/08/27 05:14:20;;;;;;;391.23;365.15;;;15.70;99.90;;;;;;5076589;28;20203;-75
2021/08/27 05:16:47;;;;;;;409.30;382.25;;;15.70;99.90;;;;;;5073921;28;20204;-75
2021/08/27 05:19:14;;;;;;;380.33;355.77;;;15.70;99.90;;;;;;5072176;28;20203;-75
2021/08/27 05:21:41;;;;;;;383.33;358.88;;;15.70;99.90;;;;;;5077974;28;20583;-76
2021/08/27 05:24:08;;;;;;;371.13;348.00;;;15.70;99.90;;;;;;5066310;28;20261;-75
2021/08/27 05:26:36;;;;;;;359.15;336.58;;;15.70;99.90;;;;;;5066861;28;20199;-75
2021/08/27 05:29:06;;;;;;;392.58;367.08;;;15.70;99.90;;;;;;5072843;28;20232;-75
2021/08/27 05:31:34;;;;;;;400.52;374.85;;;15.70;99.90;;;;;;5078535;28;20202;-76
2021/08/27 05:34:01;;;;;;;417.00;389.73;;;15.70;99.90;;;;;;5066006;28;20753;-76
2021/08/27 05:36:28;;;;;;;399.20;373.23;;;15.80;99.90;;;;;;5066171;28;20204;-75
2021/08/27 05:38:55;;;;;;;364.20;340.38;;;15.80;99.90;;;;;;5066051;28;20264;-76
2021/08/27 05:41:22;;;;;;;374.52;350.90;;;15.80;99.90;;;;;;5066117;28;20198;-76
2021/08/27 05:43:49;;;;;;;394.08;367.63;;;15.80;99.90;;;;;;5068217;28;20273;-75
2021/08/27 05:46:17;;;;;;;356.23;334.23;;;15.90;99.90;;;;;;5067850;28;20221;-75
2021/08/27 05:48:44;;;;;;;353.25;331.30;;;15.80;99.90;;;;;;5066445;28;20212;-76
2021/08/27 05:51:11;;;;;;;362.52;339.92;;;15.90;99.90;;;;;;5066635;28;20269;-76
2021/08/27 05:53:38;;;;;;;323.95;303.48;;;16.00;99.90;;;;;;5066167;28;20208;-76
2021/08/27 05:56:05;;;;;;;371.08;348.00;;;15.90;99.90;;;;;;5065512;28;20297;-76
2021/08/27 05:58:32;;;;;;;366.88;343.20;;;16.00;99.90;;;;;;5048024;28;20254;-76
2021/08/27 06:01:00;;;;;;;381.38;356.35;;;16.00;99.90;;;;;;5071098;28;20215;-76
2021/08/27 06:03:28;;;;;;;357.50;334.73;;;15.90;99.90;;;;;;5078523;28;20234;-76
2021/08/27 06:05:55;;;;;;;382.70;358.17;;;15.90;99.90;;;;;;5065993;28;20204;-76
2021/08/27 06:08:22;;;;;;;406.60;380.38;;;15.90;99.90;;;;;;5066340;28;20210;-76
2021/08/27 06:10:49;;;;;;;412.48;385.58;;;15.90;99.90;;;;;;5071040;28;20235;-75
2021/08/27 06:13:16;;;;;;;393.33;367.73;;;16.00;99.90;;;;;;5070603;28;20208;-76
2021/08/27 06:15:44;;;;;;;364.05;340.90;;;16.10;99.90;;;;;;5065235;28;20222;-76
2021/08/27 06:18:12;;;;;;;407.95;379.85;;;16.10;99.90;;;;;;5074987;28;20234;-75
2021/08/27 06:20:40;;;;;;;381.92;357.15;;;16.20;99.90;;;;;;5075815;28;20211;-75
2021/08/27 06:23:07;;;;;;;356.42;333.17;;;16.20;99.90;;;;;;5076044;28;20224;-76
2021/08/27 06:25:35;;;;;;;403.08;376.10;;;16.20;99.90;;;;;;5073851;28;20201;-75
2021/08/27 06:28:02;;;;;;;350.90;328.95;;;16.20;99.90;;;;;;5069669;28;20207;-75
2021/08/27 06:30:29;;;;;;;363.25;339.88;;;16.30;99.90;;;;;;5069522;28;20219;-75
2021/08/27 06:32:56;;;;;;;383.92;359.52;;;16.30;99.90;;;;;;5069932;28;20241;-75
2021/08/27 06:35:23;;;;;;;343.60;322.25;;;16.30;99.90;;;;;;5069102;28;20666;-75
2021/08/27 06:40:36;;;;;;;343.27;322.08;;;16.20;99.90;;;;;;5069668;28;20235;-76
2021/08/27 06:43:03;;;;;;;366.35;343.23;;;16.30;99.90;;;;;;5073865;28;20341;-75
2021/08/27 06:45:30;;;;;;;384.60;359.88;;;16.20;99.90;;;;;;5069835;28;20264;-75
2021/08/27 06:47:57;;;;;;;395.52;369.70;;;16.00;99.90;;;;;;5076816;28;20252;-73
2021/08/27 06:50:25;;;;;;;393.02;366.70;;;15.90;99.90;;;;;;5069139;28;20235;-74
2021/08/27 06:52:54;;;;;;;398.77;372.90;;;15.90;99.90;;;;;;5068545;28;20626;-74
2021/08/27 06:55:21;;;;;;;350.13;327.80;;;15.90;99.90;;;;;;5068403;28;20199;-74
2021/08/27 06:57:48;;;;;;;380.98;356.65;;;15.90;99.90;;;;;;5068635;28;20212;-75
2021/08/27 07:00:16;;;;;;;437.73;408.75;;;16.00;99.90;;;;;;5068387;28;20249;-74
2021/08/27 07:02:44;;;;;;;363.83;340.60;;;16.00;99.90;;;;;;5068315;28;20221;-74
2021/08/27 07:05:13;;;;;;;381.75;357.48;;;16.00;99.90;;;;;;5054562;28;20227;-75
2021/08/27 07:07:57;;;;;;;401.52;375.15;;;16.00;99.90;;;;;;5075176;28;20208;-75
2021/08/27 07:10:24;;;;;;;396.13;370.10;;;16.10;99.90;;;;;;5067994;28;20223;-75
2021/08/27 07:12:51;;;;;;;377.75;354.17;;;16.10;99.90;;;;;;5072163;28;20233;-75
2021/08/27 07:18:27;;;;;;;370.52;347.13;;;16.10;99.90;;;;;;5053133;28;20207;-75
2021/08/27 07:20:55;;;;;;;410.30;383.40;;;16.10;99.90;;;;;;5051147;28;20230;-73
2021/08/27 07:23:24;;;;;;;422.08;394.10;;;16.10;99.90;;;;;;5069941;28;20212;-75
2021/08/27 07:25:51;;;;;;;374.85;351.15;;;16.20;99.90;;;;;;5074050;28;20210;-74
2021/08/27 07:28:18;;;;;;;404.95;378.13;;;16.20;99.90;;;;;;5073956;28;20199;-74
2021/08/27 07:30:45;;;;;;;359.98;337.35;;;16.20;99.90;;;;;;5079910;28;20223;-73
2021/08/27 07:33:12;;;;;;;438.45;409.38;;;16.20;99.90;;;;;;5070707;28;20220;-74
2021/08/27 07:35:39;;;;;;;409.88;382.75;;;16.20;99.90;;;;;;5068888;28;20710;-73
2021/08/27 07:38:06;;;;;;;405.45;379.50;;;16.30;99.90;;;;;;5067980;28;20204;-73
2021/08/27 07:40:34;;;;;;;380.40;356.33;;;16.30;99.90;;;;;;5071373;28;20242;-73
2021/08/27 07:43:01;;;;;;;382.30;358.17;;;16.40;99.90;;;;;;5069669;28;20210;-76
2021/08/27 07:45:29;;;;;;;378.67;354.45;;;16.50;99.90;;;;;;5070850;28;20206;-75
2021/08/27 07:47:56;;;;;;;355.50;333.35;;;16.50;99.90;;;;;;5067734;28;20203;-75
2021/08/27 07:50:23;;;;;;;352.10;330.40;;;16.70;99.90;;;;;;5067515;28;20622;-75
2021/08/27 07:52:50;;;;;;;358.65;336.15;;;16.80;99.90;;;;;;5067134;28;20253;-75
2021/08/27 07:55:17;;;;;;;385.00;360.38;;;16.90;99.90;;;;;;5074096;28;20207;-75
2021/08/27 07:57:45;;;;;;;379.73;355.10;;;16.90;99.90;;;;;;5068367;28;20727;-75
2021/08/27 08:00:13;;;;;;;379.88;355.42;;;16.90;99.90;;;;;;5075483;28;20261;-75
2021/08/27 08:02:40;;;;;;;392.02;366.63;;;17.00;99.90;;;;;;5067186;28;20229;-75
2021/08/27 08:05:08;;;;;;;375.63;351.90;;;17.00;99.90;;;;;;5072340;28;20225;-75
2021/08/27 08:07:35;;;;;;;387.30;362.30;;;17.00;99.90;;;;;;5073911;28;20206;-75
2021/08/27 08:10:02;;;;;;;361.27;338.52;;;17.00;99.90;;;;;;5067460;28;20226;-75
2021/08/27 08:12:29;;;;;;;336.65;315.35;;;17.00;99.90;;;;;;5067831;28;20203;-75
2021/08/27 08:14:59;;;;;;;342.35;320.67;;;17.00;99.90;;;;;;5067063;28;20632;-75
2021/08/27 08:17:26;;;;;;;376.05;351.67;;;16.90;99.90;;;;;;5066423;28;20234;-76
2021/08/27 08:19:52;;;;;;;369.63;346.52;;;16.90;99.90;;;;;;5067351;28;20234;-75
2021/08/27 08:22:21;;;;;;;383.90;359.02;;;17.00;99.90;;;;;;5070815;28;20230;-75
2021/08/27 08:24:48;;;;;;;353.17;331.50;;;16.90;99.90;;;;;;5074863;28;20226;-75
2021/08/27 08:27:15;;;;;;;379.65;355.30;;;17.00;99.90;;;;;;5067791;28;20733;-76
2021/08/27 08:29:42;;;;;;;373.58;349.98;;;17.10;99.90;;;;;;5068138;28;20233;-75
2021/08/27 08:32:11;;;;;;;397.83;372.30;;;17.20;99.90;;;;;;5067358;28;20200;-75
2021/08/27 08:34:38;;;;;;;366.60;343.70;;;17.20;99.90;;;;;;5068153;28;20231;-75
2021/08/27 08:37:07;;;;;;;365.13;342.63;;;17.30;99.90;;;;;;5067402;28;20212;-76
2021/08/27 08:39:35;;;;;;;355.00;333.17;;;17.30;99.90;;;;;;5067146;28;20238;-75
2021/08/27 08:42:02;;;;;;;356.85;334.55;;;17.40;99.90;;;;;;5067011;28;20203;-76
2021/08/27 08:44:28;;;;;;;336.38;315.90;;;17.30;99.90;;;;;;5066072;28;20713;-76
2021/08/27 08:46:56;;;;;;;370.23;346.83;;;17.40;99.90;;;;;;5069131;28;20200;-74
2021/08/27 08:49:28;;;;;;;338.48;317.30;;;17.40;99.90;;;;;;5070255;28;20265;-74
2021/08/27 08:51:56;;;;;;;347.08;325.73;;;17.40;99.90;;;;;;5066841;28;20244;-73
2021/08/27 08:54:23;;;;;;;367.77;344.90;;;17.40;99.90;;;;;;5066711;28;20208;-74
2021/08/27 08:56:50;;;;;;;363.83;341.35;;;17.70;99.90;;;;;;5073603;28;20213;-74
2021/08/27 08:59:17;;;;;;;362.02;339.25;;;18.20;99.90;;;;;;5072650;28;20229;-76
2021/08/27 09:01:44;;;;;;;317.58;298.77;;;18.50;99.90;;;;;;5067542;28;20250;-74
2021/08/27 09:04:11;;;;;;;343.23;321.95;;;18.60;99.90;;;;;;5071250;28;20232;-74
2021/08/27 09:06:39;;;;;;;344.85;324.08;;;19.00;99.90;;;;;;5066120;28;20234;-73
2021/08/27 09:09:07;;;;;;;334.13;313.50;;;19.30;99.90;;;;;;5066133;28;20226;-76
2021/08/27 09:11:34;;;;;;;319.20;299.98;;;19.30;99.90;;;;;;5066169;28;20282;-76
2021/08/27 09:14:04;;;;;;;338.65;317.73;;;19.20;99.90;;;;;;5066707;28;20201;-75
2021/08/27 09:16:32;;;;;;;331.42;311.20;;;19.10;99.90;;;;;;5072737;28;20226;-75
2021/08/27 09:19:00;;;;;;;314.52;295.52;;;19.00;99.90;;;;;;5066544;28;20264;-75
2021/08/27 09:21:44;;;;;;;328.15;307.90;;;18.70;99.90;;;;;;5065764;28;20610;-75
2021/08/27 09:24:24;;;;;;;321.42;301.80;;;18.50;99.90;;;;;;5065953;28;20204;-75
2021/08/27 09:26:55;;;;;;;347.48;326.05;;;18.40;99.90;;;;;;5065463;28;20233;-75
2021/08/27 09:29:38;;;;;;;299.30;281.73;;;18.50;99.90;;;;;;5066297;28;20370;-75
2021/08/27 09:32:22;;;;;;;336.90;316.30;;;18.40;99.90;;;;;;5070164;28;20228;-75
2021/08/27 09:35:00;;;;;;;325.67;306.08;;;18.30;99.90;;;;;;5065938;28;20216;-75
2021/08/27 09:37:39;;;;;;;322.20;303.05;;;18.40;99.90;;;;;;5066505;28;20231;-75
2021/08/27 09:40:09;;;;;;;319.73;300.27;;;18.70;99.90;;;;;;5072309;28;20215;-75
2021/08/27 09:42:38;;;;;;;321.88;302.17;;;19.10;99.90;;;;;;5071320;28;20209;-75
2021/08/27 09:45:06;;;;;;;318.80;299.52;;;19.30;99.90;;;;;;5066045;28;20227;-75
2021/08/27 09:47:32;;;;;;;323.75;304.17;;;19.20;99.90;;;;;;5065939;28;20223;-74
2021/08/27 09:50:20;;;;;;;304.30;285.98;;;19.10;99.90;;;;;;5076376;28;20214;-75
2021/08/27 09:52:56;;;;;;;299.10;281.67;;;19.00;99.90;;;;;;5065677;28;20254;-75
2021/08/27 09:55:27;;;;;;;290.52;273.70;;;18.90;99.90;;;;;;5066292;28;20219;-75
2021/08/27 09:58:06;;;;;;;318.00;299.23;;;18.80;99.90;;;;;;5066647;28;20204;-75
2021/08/27 10:00:35;;;;;;;321.27;302.23;;;18.80;99.90;;;;;;5066416;28;20212;-75
2021/08/27 10:08:36;;;;;;;47.08;44.28;;;19.20;99.90;;;;;;5087958;28;20198;-75
2021/08/27 10:11:19;;;;;;;89.28;84.93;;;19.10;99.90;;;;;;5083615;28;20207;-75
2021/08/27 10:13:46;;;;;;;842.47;782.50;;;19.00;99.90;;;;;;5083602;28;20207;-75
2021/08/27 10:16:14;;;;;;;884.33;825.63;;;19.00;99.90;;;;;;5089001;28;20231;-75
2021/08/27 10:18:42;;;;;;;867.30;809.88;;;19.00;99.90;;;;;;5083156;28;20208;-75
2021/08/27 10:21:09;;;;;;;855.72;798.42;;;19.30;99.90;;;;;;5083382;28;20212;-75
2021/08/27 10:23:37;;;;;;;821.28;766.28;;;19.40;99.90;;;;;;5083451;28;20255;-75
2021/08/27 10:26:13;;;;;;;810.75;756.22;;;19.60;99.90;;;;;;5083402;28;20233;-75
2021/08/27 10:28:40;;;;;;;762.75;710.75;;;19.50;99.90;;;;;;5082881;28;20203;-75
2021/08/27 10:31:07;;;;;;;781.25;728.42;;;19.60;99.90;;;;;;5087083;28;20231;-75
2021/08/27 10:34:04;;;;;;;783.13;730.03;;;19.50;99.90;;;;;;5082651;28;20201;-75
2021/08/27 10:36:46;;;;;;;802.95;748.90;;;19.40;99.90;;;;;;5086184;28;20209;-75
2021/08/27 10:39:33;;;;;;;812.63;758.25;;;19.30;99.90;;;;;;5082629;28;20227;-75
2021/08/27 10:42:01;;;;;;;798.17;744.63;;;19.00;99.90;;;;;;5089490;28;20235;-75
2021/08/27 10:44:53;;;;;;;770.83;718.78;;;18.70;99.90;;;;;;5085093;28;20228;-75
2021/08/27 10:47:21;;;;;;;806.10;752.03;;;18.40;99.90;;;;;;5082694;28;20254;-74
2021/08/27 10:50:09;;;;;;;758.28;706.10;;;18.10;99.90;;;;;;5086653;28;20236;-75
2021/08/27 10:52:38;;;;;;;768.53;716.50;;;18.10;99.90;;;;;;5084619;28;20203;-75
2021/08/27 10:55:16;;;;;;;779.35;726.50;;;18.20;99.90;;;;;;5089614;28;20282;-75
2021/08/27 10:57:49;;;;;;;697.17;647.88;;;18.60;99.90;;;;;;5081938;28;20220;-75
2021/08/27 11:00:34;;;;;;;701.42;651.72;;;19.00;99.90;;;;;;5082790;28;20606;-76
2021/08/27 11:03:01;;;;;;;736.40;684.78;;;19.50;99.90;;;;;;5089006;28;20700;-76
2021/08/27 11:05:36;;;;;;;588.88;547.17;;;20.20;99.90;;;;;;5081571;28;20258;-76
2021/08/27 11:08:05;;;;;;;592.63;549.33;;;20.80;99.90;;;;;;5082126;28;20266;-76
2021/08/27 11:10:36;;;;;;;567.88;527.58;;;21.20;99.90;;;;;;5081003;28;20228;-77
2021/08/27 11:13:15;;;;;;;557.95;518.50;;;21.20;99.90;;;;;;5086616;28;20371;-76
2021/08/27 11:15:43;;;;;;;547.28;508.33;;;21.00;99.90;;;;;;5077687;28;20210;-77
2021/08/27 11:18:24;;;;;;;614.38;570.58;;;20.80;99.90;;;;;;5074578;28;20236;-76
2021/08/27 11:20:54;;;;;;;606.42;562.78;;;20.60;99.90;;;;;;5072549;28;20246;-76
2021/08/27 11:23:21;;;;;;;610.33;566.72;;;20.50;99.90;;;;;;5070329;28;20223;-76
2021/08/27 11:26:05;;;;;;;551.45;513.13;;;20.50;99.90;;;;;;5075380;28;20733;-76
2021/08/27 11:28:33;;;;;;;593.42;551.72;;;20.50;99.90;;;;;;5068855;28;20627;-76
2021/08/27 11:31:08;;;;;;;584.45;543.35;;;20.40;99.90;;;;;;5076539;28;20264;-76
2021/08/27 11:34:04;;;;;;;613.42;569.67;;;20.20;99.90;;;;;;5069270;28;20270;-76
2021/08/27 11:36:35;;;;;;;596.35;554.58;;;19.90;99.90;;;;;;5067833;28;20257;-76
2021/08/27 11:39:02;;;;;;;588.28;547.20;;;19.70;99.90;;;;;;5067977;28;20212;-76
2021/08/27 11:41:31;;;;;;;627.08;582.55;;;19.30;99.90;;;;;;5070104;28;20578;-76
2021/08/27 11:44:16;;;;;;;618.58;574.33;;;19.00;99.90;;;;;;5070683;28;20281;-76
2021/08/27 11:46:47;;;;;;;665.42;618.42;;;18.80;99.90;;;;;;5068132;28;20206;-76
2021/08/27 11:49:31;;;;;;;642.97;597.72;;;18.60;99.90;;;;;;5068054;28;20205;-76
2021/08/27 11:52:27;;;;;;;653.17;607.72;;;18.40;99.90;;;;;;5072183;28;20208;-76
2021/08/27 11:55:05;;;;;;;656.40;610.20;;;18.40;99.90;;;;;;5070511;28;20282;-76
2021/08/27 11:57:34;;;;;;;646.42;600.40;;;18.60;99.90;;;;;;5069737;28;20261;-75
2021/08/27 12:00:10;;;;;;;646.10;600.65;;;18.60;99.90;;;;;;5084440;28;20185;-75
2021/08/27 12:02:37;;;;;;;640.17;595.20;;;18.60;99.90;;;;;;5095456;28;20187;-76
2021/08/27 12:08:29;;;;;;;675.47;628.30;;;18.80;99.90;;;;;;5060428;28;20216;-75
2021/08/27 12:10:56;;;;;;;638.20;592.95;;;18.90;99.90;;;;;;5051711;28;20207;-76
2021/08/27 12:13:24;;;;;;;675.08;627.35;;;19.00;99.90;;;;;;5068558;28;20209;-75
2021/08/27 12:15:51;;;;;;;653.05;607.40;;;18.90;99.90;;;;;;5071723;28;20220;-75
2021/08/27 12:18:19;;;;;;;672.15;625.22;;;18.90;99.90;;;;;;5085350;28;20186;-76
2021/08/27 12:20:47;;;;;;;628.63;584.65;;;18.90;99.90;;;;;;5083653;28;20210;-76
2021/08/27 12:23:17;;;;;;;675.90;628.80;;;19.00;99.90;;;;;;5087140;28;20215;-75
2021/08/27 12:25:47;;;;;;;655.08;609.40;;;19.00;99.90;;;;;;5084841;28;20606;-76
2021/08/27 12:28:17;;;;;;;660.85;614.22;;;19.00;99.90;;;;;;5069550;28;20228;-76
2021/08/27 12:30:46;;;;;;;632.75;589.05;;;19.10;99.90;;;;;;5074184;28;20225;-76
2021/08/27 12:33:14;;;;;;;635.42;590.63;;;19.10;99.90;;;;;;5066403;28;20227;-75
2021/08/27 12:35:41;;;;;;;666.65;619.60;;;19.20;99.90;;;;;;5073515;28;20208;-76